sensor_id;sensor_type;location;lat;lon;timestamp;pressure;altitude;pressure_sealevel;temperature;humidity
43436;BME280;36399;51.444;-2.018;2023-04-05T03:01:06;101391.91;;;5.07;100.00
43436;BME280;36399;51.444;-2.018;2023-04-05T05:47:14;101351.06;;;4.54;100.00
43436;BME280;36399;51.444;-2.018;2023-04-05T05:49:41;101350.09;;;4.52;100.00
43436;BME280;36399;51.444;-2.018;2023-04-05T05:52:10;101351.50;;;4.46;100.00
43436;BME280;36399;51.444;-2.018;2023-04-05T05:54:38;101349.47;;;4.40;100.00
43436;BME280;36399;51.444;-2.018;2023-04-05T05:57:07;101355.88;;;4.47;100.00
43436;BME280;36399;51.444;-2.018;2023-04-05T05:59:37;101355.22;;;4.51;100.00
43436;BME280;36399;51.444;-2.018;2023-04-05T06:02:03;101344.00;;;4.52;100.00
43436;BME280;36399;51.444;-2.018;2023-04-05T06:07:14;101354.25;;;4.49;100.00
43436;BME280;36399;51.444;-2.018;2023-04-05T06:12:16;101355.63;;;4.58;100.00
43436;BME280;36399;51.444;-2.018;2023-04-05T06:14:43;101351.31;;;4.59;100.00
43436;BME280;36399;51.444;-2.018;2023-04-05T06:17:09;101353.09;;;4.60;100.00
43436;BME280;36399;51.444;-2.018;2023-04-05T06:19:35;101348.03;;;4.63;100.00
43436;BME280;36399;51.444;-2.018;2023-04-05T06:35:26;101345.75;;;5.03;100.00
43436;BME280;36399;51.444;-2.018;2023-04-05T07:08:13;101305.72;;;5.74;100.00
43436;BME280;36399;51.444;-2.018;2023-04-05T07:15:51;101293.97;;;6.01;100.00
43436;BME280;36399;51.444;-2.018;2023-04-05T07:18:29;101285.09;;;6.17;100.00
43436;BME280;36399;51.444;-2.018;2023-04-05T07:20:57;101286.28;;;6.04;100.00
43436;BME280;36399;51.444;-2.018;2023-04-05T07:23:31;101283.81;;;6.26;100.00
43436;BME280;36399;51.444;-2.018;2023-04-05T07:31:45;101265.41;;;6.23;100.00
43436;BME280;36399;51.444;-2.018;2023-04-05T07:50:03;101263.53;;;6.61;100.00
43436;BME280;36399;51.444;-2.018;2023-04-05T07:52:31;101252.34;;;6.84;100.00
43436;BME280;36399;51.444;-2.018;2023-04-05T08:03:28;101249.97;;;7.13;100.00
43436;BME280;36399;51.444;-2.018;2023-04-05T08:11:22;101252.09;;;7.23;100.00
43436;BME280;36399;51.444;-2.018;2023-04-05T08:38:24;101235.56;;;8.16;100.00
43436;BME280;36399;51.444;-2.018;2023-04-05T08:40:51;101231.13;;;8.38;100.00
43436;BME280;36399;51.444;-2.018;2023-04-05T08:46:15;101226.44;;;8.54;100.00
43436;BME280;36399;51.444;-2.018;2023-04-05T08:48:41;101221.59;;;8.67;100.00
43436;BME280;36399;51.444;-2.018;2023-04-05T08:51:07;101222.63;;;8.72;100.00
43436;BME280;36399;51.444;-2.018;2023-04-05T08:53:36;101222.72;;;8.75;100.00
43436;BME280;36399;51.444;-2.018;2023-04-05T08:56:02;101215.63;;;9.26;100.00
43436;BME280;36399;51.444;-2.018;2023-04-05T08:58:30;101210.50;;;9.01;100.00
43436;BME280;36399;51.444;-2.018;2023-04-05T09:00:58;101207.53;;;9.18;100.00
43436;BME280;36399;51.444;-2.018;2023-04-05T09:03:28;101207.63;;;9.22;100.00
43436;BME280;36399;51.444;-2.018;2023-04-05T09:05:58;101204.88;;;9.45;100.00
43436;BME280;36399;51.444;-2.018;2023-04-05T09:08:24;101198.78;;;9.46;100.00
43436;BME280;36399;51.444;-2.018;2023-04-05T09:10:50;101198.56;;;9.70;100.00
43436;BME280;36399;51.444;-2.018;2023-04-05T09:13:17;101198.34;;;9.93;100.00
43436;BME280;36399;51.444;-2.018;2023-04-05T09:15:46;101199.84;;;9.85;100.00
43436;BME280;36399;51.444;-2.018;2023-04-05T09:18:13;101191.38;;;9.63;100.00
43436;BME280;36399;51.444;-2.018;2023-04-05T09:20:39;101196.16;;;9.46;100.00
43436;BME280;36399;51.444;-2.018;2023-04-05T09:23:05;101199.84;;;9.25;100.00
43436;BME280;36399;51.444;-2.018;2023-04-05T09:28:04;101213.06;;;8.72;100.00
43436;BME280;36399;51.444;-2.018;2023-04-05T09:30:31;101212.81;;;8.65;100.00
43436;BME280;36399;51.444;-2.018;2023-04-05T09:32:58;101217.06;;;8.61;100.00
43436;BME280;36399;51.444;-2.018;2023-04-05T09:35:28;101213.41;;;8.83;100.00
43436;BME280;36399;51.444;-2.018;2023-04-05T09:38:00;101218.84;;;8.89;100.00
43436;BME280;36399;51.444;-2.018;2023-04-05T09:40:45;101217.69;;;9.08;100.00
43436;BME280;36399;51.444;-2.018;2023-04-05T09:45:58;101214.59;;;9.49;100.00
43436;BME280;36399;51.444;-2.018;2023-04-05T09:48:47;101210.28;;;9.23;100.00
43436;BME280;36399;51.444;-2.018;2023-04-05T09:51:17;101207.06;;;9.03;100.00
43436;BME280;36399;51.444;-2.018;2023-04-05T09:54:15;101213.00;;;9.26;100.00
43436;BME280;36399;51.444;-2.018;2023-04-05T09:56:53;101211.22;;;9.54;100.00
43436;BME280;36399;51.444;-2.018;2023-04-05T09:59:21;101206.72;;;9.49;100.00
43436;BME280;36399;51.444;-2.018;2023-04-05T10:01:50;101206.06;;;9.28;100.00
43436;BME280;36399;51.444;-2.018;2023-04-05T10:04:19;101213.09;;;9.29;100.00
43436;BME280;36399;51.444;-2.018;2023-04-05T10:06:46;101215.34;;;9.45;100.00
43436;BME280;36399;51.444;-2.018;2023-04-05T10:09:11;101220.13;;;9.60;100.00
43436;BME280;36399;51.444;-2.018;2023-04-05T10:11:41;101223.81;;;9.67;100.00
43436;BME280;36399;51.444;-2.018;2023-04-05T10:43:18;101204.88;;;10.08;100.00
43436;BME280;36399;51.444;-2.018;2023-04-05T14:13:20;101043.31;;;9.47;100.00
43436;BME280;36399;51.444;-2.018;2023-04-05T14:15:47;101041.53;;;9.46;100.00
43436;BME280;36399;51.444;-2.018;2023-04-05T14:52:18;100989.84;;;9.41;100.00
43436;BME280;36399;51.444;-2.018;2023-04-05T15:28:41;100945.41;;;9.81;100.00
43436;BME280;36399;51.444;-2.018;2023-04-05T15:31:07;100944.38;;;9.75;100.00
43436;BME280;36399;51.444;-2.018;2023-04-05T15:38:45;100945.41;;;9.81;100.00
43436;BME280;36399;51.444;-2.018;2023-04-05T16:06:15;100929.88;;;9.53;100.00
43436;BME280;36399;51.444;-2.018;2023-04-05T16:08:42;100933.38;;;9.54;100.00
43436;BME280;36399;51.444;-2.018;2023-04-05T16:30:29;100917.72;;;9.22;100.00
43436;BME280;36399;51.444;-2.018;2023-04-05T16:32:59;100915.59;;;9.40;100.00
43436;BME280;36399;51.444;-2.018;2023-04-05T16:35:29;100907.19;;;9.54;100.00
43436;BME280;36399;51.444;-2.018;2023-04-05T16:37:56;100903.63;;;9.52;100.00
43436;BME280;36399;51.444;-2.018;2023-04-05T16:48:16;100914.91;;;9.14;100.00
43436;BME280;36399;51.444;-2.018;2023-04-05T16:50:43;100912.06;;;9.05;100.00
43436;BME280;36399;51.444;-2.018;2023-04-05T16:53:12;100920.03;;;9.10;100.00
43436;BME280;36399;51.444;-2.018;2023-04-05T16:55:42;100918.16;;;9.04;100.00
43436;BME280;36399;51.444;-2.018;2023-04-05T18:25:14;100966.84;;;8.09;100.00
43436;BME280;36399;51.444;-2.018;2023-04-05T18:27:42;100960.06;;;8.16;100.00
43436;BME280;36399;51.444;-2.018;2023-04-05T18:30:09;100968.84;;;8.18;100.00
43436;BME280;36399;51.444;-2.018;2023-04-05T18:32:37;100959.03;;;8.11;100.00
43436;BME280;36399;51.444;-2.018;2023-04-05T18:35:05;100966.19;;;8.16;100.00
43436;BME280;36399;51.444;-2.018;2023-04-05T18:37:31;100970.47;;;8.14;100.00
43436;BME280;36399;51.444;-2.018;2023-04-05T18:39:57;100963.38;;;8.10;100.00
43436;BME280;36399;51.444;-2.018;2023-04-05T18:42:23;100970.19;;;8.05;100.00
43436;BME280;36399;51.444;-2.018;2023-04-05T18:44:49;100970.25;;;8.07;100.00
43436;BME280;36399;51.444;-2.018;2023-04-05T18:47:15;100968.44;;;8.04;100.00
43436;BME280;36399;51.444;-2.018;2023-04-05T18:49:41;100966.59;;;8.02;100.00
43436;BME280;36399;51.444;-2.018;2023-04-05T18:52:07;100974.41;;;8.00;100.00
43436;BME280;36399;51.444;-2.018;2023-04-05T18:54:34;100969.06;;;7.97;100.00
43436;BME280;36399;51.444;-2.018;2023-04-05T18:57:00;100974.31;;;7.97;100.00
43436;BME280;36399;51.444;-2.018;2023-04-05T18:59:26;100975.97;;;7.95;100.00
43436;BME280;36399;51.444;-2.018;2023-04-05T19:01:54;100981.25;;;7.97;100.00
43436;BME280;36399;51.444;-2.018;2023-04-05T19:04:22;100980.31;;;7.95;100.00
43436;BME280;36399;51.444;-2.018;2023-04-05T19:06:48;100979.44;;;7.94;100.00
43436;BME280;36399;51.444;-2.018;2023-04-05T19:09:16;100974.31;;;7.97;100.00
43436;BME280;36399;51.444;-2.018;2023-04-05T19:11:47;100981.34;;;8.00;100.00
43436;BME280;36399;51.444;-2.018;2023-04-05T19:14:14;100983.00;;;7.96;100.00
43436;BME280;36399;51.444;-2.018;2023-04-05T19:16:41;100990.78;;;7.95;100.00
43436;BME280;36399;51.444;-2.018;2023-04-05T19:21:48;100986.53;;;7.98;100.00
43436;BME280;36399;51.444;-2.018;2023-04-05T19:24:16;100988.16;;;7.95;100.00
43436;BME280;36399;51.444;-2.018;2023-04-05T19:26:43;100984.72;;;7.96;100.00
43436;BME280;36399;51.444;-2.018;2023-04-05T19:29:13;100988.22;;;7.96;100.00
43436;BME280;36399;51.444;-2.018;2023-04-05T19:31:41;100991.66;;;7.95;100.00
43436;BME280;36399;51.444;-2.018;2023-04-05T19:34:11;100983.28;;;8.05;100.00
43436;BME280;36399;51.444;-2.018;2023-04-05T19:36:38;100986.53;;;7.98;100.00
43436;BME280;36399;51.444;-2.018;2023-04-05T19:39:05;100987.28;;;7.94;100.00
43436;BME280;36399;51.444;-2.018;2023-04-05T19:41:32;100984.63;;;7.93;100.00
43436;BME280;36399;51.444;-2.018;2023-04-05T19:44:07;100979.34;;;7.91;100.00
43436;BME280;36399;51.444;-2.018;2023-04-05T19:46:42;100984.56;;;7.91;100.00
43436;BME280;36399;51.444;-2.018;2023-04-05T19:49:11;100983.81;;;7.95;100.00
43436;BME280;36399;51.444;-2.018;2023-04-05T19:51:43;100971.50;;;7.91;100.00
43436;BME280;36399;51.444;-2.018;2023-04-05T19:54:11;100982.88;;;7.93;100.00
43436;BME280;36399;51.444;-2.018;2023-04-05T19:56:42;100977.66;;;7.93;100.00
43436;BME280;36399;51.444;-2.018;2023-04-05T20:04:29;100983.00;;;7.96;100.00
43436;BME280;36399;51.444;-2.018;2023-04-05T20:06:59;100967.22;;;7.93;100.00
43436;BME280;36399;51.444;-2.018;2023-04-05T20:09:30;100967.91;;;7.87;100.00
43436;BME280;36399;51.444;-2.018;2023-04-05T20:12:01;100972.25;;;7.87;100.00
43436;BME280;36399;51.444;-2.018;2023-04-05T20:23:36;100961.97;;;7.93;100.00
43436;BME280;36399;51.444;-2.018;2023-04-05T20:34:35;100959.91;;;7.83;100.00
43436;BME280;36399;51.444;-2.018;2023-04-05T20:50:38;100940.09;;;7.89;100.00
43436;BME280;36399;51.444;-2.018;2023-04-05T20:53:10;100935.75;;;7.90;100.00
43436;BME280;36399;51.444;-2.018;2023-04-05T21:06:44;100923.31;;;7.83;100.00
43436;BME280;36399;51.444;-2.018;2023-04-05T21:09:13;100933.00;;;7.85;100.00
43436;BME280;36399;51.444;-2.018;2023-04-05T21:11:39;100919.97;;;7.87;100.00
43436;BME280;36399;51.444;-2.018;2023-04-05T21:14:08;100921.84;;;7.91;100.00
43436;BME280;36399;51.444;-2.018;2023-04-05T21:16:46;100919.19;;;7.89;100.00
43436;BME280;36399;51.444;-2.018;2023-04-05T21:19:13;100916.59;;;7.91;100.00
43436;BME280;36399;51.444;-2.018;2023-04-05T21:21:39;100912.50;;;7.99;100.00
43436;BME280;36399;51.444;-2.018;2023-04-05T21:24:11;100906.19;;;7.93;100.00
43436;BME280;36399;51.444;-2.018;2023-04-05T21:26:40;100908.81;;;7.93;100.00
43436;BME280;36399;51.444;-2.018;2023-04-05T21:29:10;100911.41;;;7.93;100.00
43436;BME280;36399;51.444;-2.018;2023-04-05T21:31:38;100905.34;;;7.94;100.00
43436;BME280;36399;51.444;-2.018;2023-04-05T21:36:41;100908.09;;;7.98;100.00
43436;BME280;36399;51.444;-2.018;2023-04-05T21:39:11;100905.59;;;8.01;100.00
43436;BME280;36399;51.444;-2.018;2023-04-05T21:41:45;100894.84;;;7.92;100.00
43436;BME280;36399;51.444;-2.018;2023-04-05T21:44:15;100897.41;;;7.90;100.00
43436;BME280;36399;51.444;-2.018;2023-04-05T21:46:44;100899.16;;;7.90;100.00
43436;BME280;36399;51.444;-2.018;2023-04-05T21:49:11;100899.25;;;7.93;100.00
43436;BME280;36399;51.444;-2.018;2023-04-05T21:51:39;100889.75;;;7.97;100.00
43436;BME280;36399;51.444;-2.018;2023-04-05T21:54:11;100874.78;;;7.91;100.00
43436;BME280;36399;51.444;-2.018;2023-04-05T21:56:43;100878.22;;;7.90;100.00
43436;BME280;36399;51.444;-2.018;2023-04-05T22:18:54;100857.50;;;7.96;100.00
43436;BME280;36399;51.444;-2.018;2023-04-05T22:23:51;100857.50;;;7.96;100.00
43436;BME280;36399;51.444;-2.018;2023-04-05T23:23:17;100811.13;;;8.20;100.00
